Lone Pine, CA

4:11 AM PST on December 05, 2016 (GMT -0800)
Little Hollywood | | Change Station

Elev 3727 ft 36.60 °N, 118.06 °W | Updated 16 seconds ago

Clear
Clear
33.4 °F
Feels Like 33 °F
N
0.0
Wind Variable Wind from West
Gusts 0.0 mph

Today
High -- | Low -- °F
--% Chance of Precip.
Yesterday
High -- | Low -- °F
Precip. -- in
Pressure 29.87 in
Visibility 10.0 miles
Clouds Clear
Windchill 33 °F
Dew Point 17 °F
Humidity 50%
Rainfall 0.00 in
Snow Depth Not available.
6:49 AM 4:36 PM
Waxing Crescent, 31% visible
METAR KBIH 051156Z AUTO 36004KT 10SM CLR 07/M09 A2994 RMK AO2 SLP113 T00721089 10089 21011 56003 TSNO $
Pressure 29.87 in
Visibility 10.0 miles
Clouds Clear
Windchill 33 °F
Dew Point 17 °F
Humidity 50%
Rainfall 0.00 in
Snow Depth Not available.
6:49 AM 4:36 PM
Waxing Crescent, 31% visible
METAR KBIH 051156Z AUTO 36004KT 10SM CLR 07/M09 A2994 RMK AO2 SLP113 T00721089 10089 21011 56003 TSNO $

10-Day Weather Forecast

Almanac

Astronomy

Dec. 05, 2016 Rise Set
Actual Time
Civil Twilight
Nautical Twilight
Astronomical Twilight
Moon
Length of Visible Light
Length of Day
Tomorrow will be .
, % of the Moon is Illuminated

Today's Extremes

State Highs State Lows

Community

WunderPhotos

Upload Photos

1,955,779 photos uploaded!

WunderBlog® & News

Nearby

Air Quality

  Air Quality AQ Index Pollutant
Not available.

Snow Depth

Station Depth Elevation

Earthquake Activity

City Distance Mag. Time & Date
Minimum magnitude displayed is 2.5.

Coastal Water Temperatures

Place Temperature

Stations

Nearby Weather Stations

Station Location Temp. Windchill Dew Point Humidity Wind Precip. Elev Updated Type
                   

Watches & Warnings

There are currently no watches in effect.